createdAt,value
2024-03-12T00:01:10.070Z,6.33
2024-03-12T00:03:44.223Z,6.36
2024-03-12T00:06:11.808Z,6.35
2024-03-12T00:08:40.777Z,6.34
2024-03-12T00:11:09.201Z,6.34
2024-03-12T00:13:36.456Z,6.40
2024-03-12T00:16:04.812Z,6.34
2024-03-12T00:18:34.342Z,6.30
2024-03-12T00:21:05.226Z,6.36
2024-03-12T00:23:32.295Z,6.40
2024-03-12T00:25:59.266Z,6.50
2024-03-12T00:28:26.356Z,6.60
2024-03-12T00:30:55.199Z,6.70
2024-03-12T00:33:22.642Z,6.81
2024-03-12T00:35:49.775Z,6.95
2024-03-12T00:38:19.117Z,6.98
2024-03-12T00:40:48.137Z,7.04
2024-03-12T00:43:15.455Z,7.07
2024-03-12T00:45:43.380Z,7.08
2024-03-12T00:48:14.403Z,7.16
2024-03-12T00:50:43.731Z,7.09
2024-03-12T00:53:12.903Z,7.22
2024-03-12T00:55:42.036Z,7.16
2024-03-12T00:58:13.613Z,7.17
2024-03-12T01:00:42.300Z,7.20
2024-03-12T01:03:10.477Z,7.16
2024-03-12T01:05:39.056Z,7.24
2024-03-12T01:08:07.482Z,7.25
2024-03-12T01:10:36.015Z,7.24
2024-03-12T01:13:10.795Z,7.24
2024-03-12T01:15:39.029Z,7.26
2024-03-12T01:18:06.364Z,7.21
2024-03-12T01:20:36.135Z,7.21
2024-03-12T01:23:06.034Z,7.21
2024-03-12T01:25:35.857Z,7.24
2024-03-12T01:28:03.713Z,7.25
2024-03-12T01:30:31.743Z,7.22
2024-03-12T01:32:59.566Z,7.23
2024-03-12T01:35:26.886Z,7.22
2024-03-12T01:37:54.658Z,7.23
2024-03-12T01:40:24.041Z,7.15
2024-03-12T01:42:53.746Z,7.17
2024-03-12T01:45:25.352Z,7.16
2024-03-12T01:47:55.738Z,7.15
2024-03-12T01:50:25.802Z,7.14
2024-03-12T01:53:08.426Z,7.06
2024-03-12T01:55:39.344Z,7.06
2024-03-12T01:58:07.671Z,7.08
2024-03-12T02:00:35.153Z,7.02
2024-03-12T02:03:02.410Z,7.00
2024-03-12T02:05:29.635Z,6.93
2024-03-12T02:07:56.792Z,6.94
2024-03-12T02:10:26.163Z,6.95
2024-03-12T02:12:53.381Z,7.02
2024-03-12T02:15:23.359Z,6.95
2024-03-12T02:17:52.950Z,6.95
2024-03-12T02:20:22.429Z,6.92
2024-03-12T02:22:54.381Z,6.90
2024-03-12T02:25:21.643Z,6.93
2024-03-12T02:27:48.700Z,6.95
2024-03-12T02:30:16.075Z,6.98
2024-03-12T02:32:43.362Z,7.01
2024-03-12T02:35:13.329Z,6.96
2024-03-12T02:37:40.685Z,6.98
2024-03-12T02:40:16.487Z,7.07
2024-03-12T02:42:45.415Z,7.03
2024-03-12T02:45:16.477Z,7.12
2024-03-12T02:47:45.299Z,7.15
2024-03-12T02:50:12.737Z,7.16
2024-03-12T02:52:40.083Z,7.20
2024-03-12T02:55:08.135Z,7.22
2024-03-12T02:57:35.542Z,7.20
2024-03-12T03:00:12.333Z,7.27
2024-03-12T03:02:39.510Z,7.31
2024-03-12T03:05:13.287Z,7.27
2024-03-12T03:07:41.912Z,7.30
2024-03-12T03:10:11.047Z,7.31
2024-03-12T03:12:38.574Z,7.34
2024-03-12T03:15:06.555Z,7.42
2024-03-12T03:17:33.717Z,7.39
2024-03-12T03:20:00.800Z,7.50
2024-03-12T03:22:29.146Z,7.50
2024-03-12T03:24:56.189Z,7.52
2024-03-12T03:27:23.198Z,7.53
2024-03-12T03:29:50.175Z,7.53
2024-03-12T03:32:17.175Z,7.49
2024-03-12T03:34:44.492Z,7.53
2024-03-12T03:37:12.510Z,7.51
2024-03-12T03:39:40.572Z,7.52
2024-03-12T03:42:07.903Z,7.57
2024-03-12T03:44:35.114Z,7.54
2024-03-12T03:47:02.084Z,7.61
2024-03-12T03:49:29.119Z,7.59
2024-03-12T03:51:56.755Z,7.60
2024-03-12T03:54:23.897Z,7.66
2024-03-12T03:56:51.001Z,7.65
2024-03-12T03:59:20.552Z,7.66
2024-03-12T04:01:50.334Z,7.71
2024-03-12T04:04:20.104Z,7.65
2024-03-12T04:06:48.060Z,7.65
2024-03-12T04:09:19.139Z,7.65
2024-03-12T04:11:46.222Z,7.64
2024-03-12T04:14:13.189Z,7.70
2024-03-12T04:16:40.801Z,7.69
2024-03-12T04:19:08.167Z,7.65
2024-03-12T04:21:37.599Z,7.66
2024-03-12T04:24:05.555Z,7.64
2024-03-12T04:26:32.786Z,7.57
2024-03-12T04:29:00.043Z,7.55
2024-03-12T04:31:27.402Z,7.58
2024-03-12T04:33:54.921Z,7.57
2024-03-12T04:36:25.993Z,7.69
2024-03-12T04:38:53.516Z,7.70
2024-03-12T04:41:23.759Z,7.64
2024-03-12T04:43:50.740Z,7.68
2024-03-12T04:46:17.870Z,7.65
2024-03-12T04:48:46.560Z,7.64
2024-03-12T04:51:15.565Z,7.74
2024-03-12T04:53:43.092Z,7.70
2024-03-12T04:56:10.271Z,7.70
2024-03-12T04:58:38.227Z,7.75
2024-03-12T05:01:07.442Z,7.70
2024-03-12T05:03:35.669Z,7.77
2024-03-12T05:06:03.113Z,7.75
2024-03-12T05:08:30.270Z,7.76
2024-03-12T05:10:58.763Z,7.85
2024-03-12T05:13:27.212Z,7.76
2024-03-12T05:15:54.206Z,7.75
2024-03-12T05:18:21.334Z,7.82
2024-03-12T05:20:48.373Z,7.88
2024-03-12T05:23:16.386Z,7.89
2024-03-12T05:25:45.333Z,7.88
2024-03-12T05:28:13.349Z,7.87
2024-03-12T05:30:42.148Z,7.86
2024-03-12T05:33:11.632Z,7.87
2024-03-12T05:35:40.332Z,7.89
2024-03-12T05:38:23.505Z,7.87
2024-03-12T05:41:15.871Z,7.86
2024-03-12T05:44:01.710Z,7.85
2024-03-12T05:46:48.373Z,7.82
2024-03-12T05:49:15.848Z,7.80
2024-03-12T05:51:43.392Z,7.76
2024-03-12T05:54:10.813Z,7.79
2024-03-12T05:56:38.977Z,7.77
2024-03-12T05:59:08.400Z,7.82
2024-03-12T06:01:35.871Z,7.78
2024-03-12T06:04:04.240Z,7.72
2024-03-12T06:06:33.464Z,7.71
2024-03-12T06:09:00.989Z,7.74
2024-03-12T06:11:28.704Z,7.82
2024-03-12T06:13:55.953Z,7.78
2024-03-12T06:16:22.971Z,7.75
2024-03-12T06:18:50.009Z,7.73
2024-03-12T06:21:17.483Z,7.73
2024-03-12T06:23:45.725Z,7.78
2024-03-12T06:26:13.032Z,7.72
2024-03-12T06:28:41.050Z,7.80
2024-03-12T06:31:08.145Z,7.75
2024-03-12T06:33:36.424Z,7.77
2024-03-12T06:36:04.115Z,7.68
2024-03-12T06:38:31.121Z,7.69
2024-03-12T06:40:58.174Z,7.65
2024-03-12T06:43:25.338Z,7.72
2024-03-12T06:45:53.804Z,7.68
2024-03-12T06:48:21.418Z,7.71
2024-03-12T06:50:48.418Z,7.75
2024-03-12T06:53:16.298Z,7.84
2024-03-12T06:55:43.417Z,7.76
2024-03-12T06:58:13.273Z,7.77
2024-03-12T07:00:45.856Z,7.75
2024-03-12T07:03:15.691Z,7.79
2024-03-12T07:05:46.636Z,7.78
2024-03-12T07:08:15.706Z,7.76
2024-03-12T07:10:42.999Z,7.85
2024-03-12T07:13:11.037Z,7.88
2024-03-12T07:15:41.734Z,7.86
2024-03-12T07:18:09.363Z,7.88
2024-03-12T07:20:36.875Z,7.83
2024-03-12T07:23:05.694Z,7.84
2024-03-12T07:25:33.284Z,7.92
2024-03-12T07:28:07.745Z,7.86
2024-03-12T07:30:36.627Z,7.88
2024-03-12T07:33:04.692Z,7.92
2024-03-12T07:35:35.576Z,7.88
2024-03-12T07:38:04.213Z,7.90
2024-03-12T07:40:31.919Z,7.95
2024-03-12T07:43:00.340Z,7.92
2024-03-12T07:45:28.376Z,7.97
2024-03-12T07:47:57.292Z,7.88
2024-03-12T07:50:29.612Z,7.90
2024-03-12T07:52:56.992Z,7.90
2024-03-12T07:55:25.334Z,7.97
2024-03-12T07:57:52.473Z,8.07
2024-03-12T08:00:20.586Z,8.05
2024-03-12T08:02:48.037Z,8.01
2024-03-12T08:05:15.194Z,8.17
2024-03-12T08:07:45.697Z,8.18
2024-03-12T08:10:13.520Z,8.20
2024-03-12T08:12:41.433Z,8.19
2024-03-12T08:15:10.651Z,8.23
2024-03-12T08:17:39.532Z,8.23
2024-03-12T08:20:11.762Z,8.27
2024-03-12T08:22:42.098Z,8.24
2024-03-12T08:25:12.313Z,8.31
2024-03-12T08:27:42.262Z,8.29
2024-03-12T08:30:13.397Z,8.28
2024-03-12T08:32:42.967Z,8.32
2024-03-12T08:35:11.519Z,8.30
2024-03-12T08:37:41.641Z,8.33
2024-03-12T08:40:09.464Z,8.31
2024-03-12T08:42:44.680Z,8.35
2024-03-12T08:45:21.272Z,8.30
2024-03-12T08:47:50.380Z,8.38
2024-03-12T08:50:18.258Z,8.38
2024-03-12T08:52:45.590Z,8.53
2024-03-12T08:55:12.734Z,8.58
2024-03-12T08:57:39.983Z,8.63
2024-03-12T09:00:12.468Z,8.63
2024-03-12T09:02:43.342Z,8.64
2024-03-12T09:05:10.988Z,8.63
2024-03-12T09:07:38.487Z,8.71
2024-03-12T09:10:14.399Z,8.69
2024-03-12T09:12:44.665Z,8.90
2024-03-12T09:15:11.801Z,9.03
2024-03-12T09:17:40.035Z,9.01
2024-03-12T09:20:11.598Z,9.04
2024-03-12T09:22:40.352Z,9.00
2024-03-12T09:25:09.577Z,9.04
2024-03-12T09:27:36.950Z,9.18
2024-03-12T09:30:06.677Z,9.28
2024-03-12T09:32:34.882Z,9.39
2024-03-12T09:35:05.066Z,9.43
2024-03-12T09:37:33.351Z,9.55
2024-03-12T09:40:01.975Z,9.58
2024-03-12T09:42:29.745Z,9.68
2024-03-12T09:45:09.570Z,9.77
2024-03-12T09:47:37.969Z,9.79
2024-03-12T09:50:12.467Z,9.88
2024-03-12T09:52:44.484Z,9.97
2024-03-12T09:55:12.382Z,10.02
2024-03-12T09:57:39.841Z,10.04
2024-03-12T10:00:13.102Z,10.10
2024-03-12T10:02:40.436Z,10.17
2024-03-12T10:05:09.174Z,10.07
2024-03-12T10:07:37.712Z,10.09
2024-03-12T10:10:08.443Z,10.11
2024-03-12T10:12:36.769Z,10.07
2024-03-12T10:15:08.874Z,9.98
2024-03-12T10:17:36.099Z,9.95
2024-03-12T10:20:16.819Z,9.92
2024-03-12T10:22:45.317Z,9.90
2024-03-12T10:25:13.113Z,9.90
2024-03-12T10:28:06.675Z,9.95
2024-03-12T10:30:38.892Z,9.86
2024-03-12T10:33:14.462Z,9.92
2024-03-12T10:35:48.254Z,9.96
2024-03-12T10:38:26.927Z,9.97
2024-03-12T10:40:58.239Z,9.92
2024-03-12T10:43:25.843Z,9.93
2024-03-12T10:45:55.361Z,9.86
2024-03-12T10:48:23.004Z,9.85
2024-03-12T10:50:50.475Z,9.81
2024-03-12T10:53:19.158Z,9.77
2024-03-12T11:01:16.366Z,9.72
2024-03-12T11:03:48.234Z,9.65
2024-03-12T11:06:16.432Z,9.62
2024-03-12T11:08:47.399Z,9.59
2024-03-12T11:11:20.986Z,9.56
2024-03-12T11:13:50.569Z,9.46
2024-03-12T11:16:20.354Z,9.40
2024-03-12T11:18:50.909Z,9.45
2024-03-12T11:21:31.733Z,9.30
2024-03-12T11:23:59.822Z,9.34
2024-03-12T11:26:36.937Z,9.40
2024-03-12T11:29:04.372Z,9.44
2024-03-12T11:31:40.726Z,9.45
2024-03-12T11:34:08.891Z,9.42
2024-03-12T11:36:47.994Z,9.61
2024-03-12T11:39:30.962Z,9.60
2024-03-12T11:42:01.716Z,9.70
2024-03-12T11:44:54.814Z,9.71
2024-03-12T11:47:37.823Z,9.71
2024-03-12T11:50:26.370Z,9.64
2024-03-12T11:52:53.455Z,9.62
2024-03-12T11:56:11.615Z,9.68
2024-03-12T11:58:48.696Z,9.63
2024-03-12T12:01:32.250Z,9.68
2024-03-12T12:04:06.401Z,9.62
2024-03-12T12:06:34.426Z,9.68
2024-03-12T12:09:10.324Z,9.65
2024-03-12T12:11:39.881Z,9.57
2024-03-12T12:14:09.584Z,9.55
2024-03-12T12:16:37.687Z,9.49
2024-03-12T12:19:21.974Z,9.49
2024-03-12T12:21:53.586Z,9.40
2024-03-12T12:24:28.036Z,9.57
2024-03-12T12:26:57.369Z,9.56
2024-03-12T12:29:30.594Z,9.53
2024-03-12T12:31:59.318Z,9.56
2024-03-12T12:34:29.626Z,9.58
2024-03-12T12:36:57.497Z,9.56
2024-03-12T12:39:32.928Z,9.57
2024-03-12T12:42:11.275Z,9.63
2024-03-12T12:44:38.417Z,9.64
2024-03-12T12:47:06.439Z,9.71
2024-03-12T12:49:36.621Z,9.84
2024-03-12T12:52:06.128Z,9.92
2024-03-12T12:54:34.832Z,10.00
2024-03-12T12:57:06.246Z,9.99
2024-03-12T12:59:36.501Z,10.04
2024-03-12T13:02:20.158Z,10.01
2024-03-12T13:04:47.583Z,10.11
2024-03-12T13:07:31.541Z,10.15
2024-03-12T13:10:18.788Z,10.13
2024-03-12T13:12:49.088Z,10.15
2024-03-12T13:15:27.297Z,10.17
2024-03-12T13:17:55.069Z,10.20
2024-03-12T13:20:23.122Z,10.16
2024-03-12T13:22:51.782Z,10.12
2024-03-12T13:25:21.987Z,10.12
2024-03-12T13:27:50.680Z,10.08
2024-03-12T13:30:25.606Z,10.02
2024-03-12T13:32:56.108Z,10.00
2024-03-12T13:35:23.850Z,10.01
2024-03-12T13:37:51.180Z,9.98
2024-03-12T13:40:19.040Z,9.92
2024-03-12T13:42:46.503Z,9.89
2024-03-12T13:45:14.400Z,9.74
2024-03-12T13:47:42.372Z,9.77
2024-03-12T13:50:10.396Z,9.72
2024-03-12T13:52:37.528Z,9.60
2024-03-12T13:55:06.177Z,9.65
2024-03-12T13:57:36.658Z,9.65
2024-03-12T14:00:09.525Z,9.64
2024-03-12T14:02:41.255Z,9.64
2024-03-12T14:05:10.114Z,9.68
2024-03-12T14:07:37.390Z,9.64
2024-03-12T14:10:12.488Z,9.60
2024-03-12T14:12:39.834Z,9.58
2024-03-12T14:15:07.580Z,9.57
2024-03-12T14:17:34.875Z,9.56
2024-03-12T14:20:06.908Z,9.49
2024-03-12T14:22:34.289Z,9.53
2024-03-12T14:25:02.041Z,9.54
2024-03-12T14:30:04.228Z,9.50
2024-03-12T14:32:31.684Z,9.50
2024-03-12T14:34:58.972Z,9.51
2024-03-12T14:37:26.201Z,9.50
2024-03-12T14:39:54.196Z,9.47
2024-03-12T14:42:24.713Z,9.49
2024-03-12T14:44:51.796Z,9.37
2024-03-12T14:47:21.041Z,9.33
2024-03-12T14:49:49.464Z,9.33
2024-03-12T14:52:17.771Z,9.32
2024-03-12T14:54:45.185Z,9.35
2024-03-12T14:57:12.397Z,9.31
2024-03-12T14:59:40.499Z,9.32
2024-03-12T15:02:08.463Z,9.33
2024-03-12T15:04:36.739Z,9.39
2024-03-12T15:07:04.390Z,9.38
2024-03-12T15:09:33.613Z,9.38
2024-03-12T15:12:00.850Z,9.42
2024-03-12T15:14:29.056Z,9.44
2024-03-12T15:16:57.563Z,9.47
2024-03-12T15:19:25.818Z,9.49
2024-03-12T15:21:54.776Z,9.49
2024-03-12T15:24:22.962Z,9.49
2024-03-12T15:26:50.202Z,9.43
2024-03-12T15:29:21.265Z,9.49
2024-03-12T15:31:51.126Z,9.54
2024-03-12T15:34:19.313Z,9.48
2024-03-12T15:36:48.743Z,9.49
2024-03-12T15:39:16.154Z,9.54
2024-03-12T15:41:43.651Z,9.54
2024-03-12T15:44:12.768Z,9.64
2024-03-12T15:46:42.928Z,9.61
2024-03-12T15:49:11.165Z,9.66
2024-03-12T15:51:40.662Z,9.67
2024-03-12T15:54:13.465Z,9.65
2024-03-12T15:56:45.414Z,9.65
2024-03-12T15:59:15.621Z,9.68
2024-03-12T16:01:44.783Z,9.65
2024-03-12T16:04:14.656Z,9.61
2024-03-12T16:06:43.358Z,9.52
2024-03-12T16:09:18.156Z,9.54
2024-03-12T16:11:45.496Z,9.49
2024-03-12T16:14:13.711Z,9.43
2024-03-12T16:16:41.338Z,9.49
2024-03-12T16:19:08.700Z,9.49
2024-03-12T16:21:36.095Z,9.40
2024-03-12T16:24:05.759Z,9.38
2024-03-12T16:26:33.055Z,9.36
2024-03-12T16:29:01.064Z,9.28
2024-03-12T16:31:28.187Z,9.35
2024-03-12T16:33:55.793Z,9.36
2024-03-12T16:36:23.182Z,9.41
2024-03-12T16:38:50.749Z,9.35
2024-03-12T16:41:18.782Z,9.34
2024-03-12T16:43:45.863Z,9.30
2024-03-12T16:46:13.171Z,9.31
2024-03-12T16:48:41.562Z,9.28
2024-03-12T16:51:09.247Z,9.33
2024-03-12T16:53:36.914Z,9.26
2024-03-12T16:56:04.795Z,9.25
2024-03-12T16:58:32.394Z,9.19
2024-03-12T17:01:00.740Z,9.20
2024-03-12T17:03:31.270Z,9.15
2024-03-12T17:05:58.964Z,9.14
2024-03-12T17:08:26.857Z,9.14
2024-03-12T17:10:54.610Z,9.18
2024-03-12T17:16:51.931Z,9.02
2024-03-12T17:19:21.555Z,9.04
2024-03-12T17:21:56.836Z,9.05
2024-03-12T17:24:30.635Z,9.04
2024-03-12T17:27:07.890Z,8.97
2024-03-12T17:29:38.128Z,8.98
2024-03-12T17:32:15.274Z,8.96
2024-03-12T17:34:45.821Z,8.95
2024-03-12T17:37:18.658Z,8.96
2024-03-12T17:39:50.109Z,8.98
2024-03-12T17:42:24.726Z,8.96
2024-03-12T17:44:54.685Z,8.87
2024-03-12T17:47:26.116Z,8.90
2024-03-12T17:49:58.594Z,8.89
2024-03-12T17:52:26.326Z,8.95
2024-03-12T17:54:56.080Z,8.89
2024-03-12T17:57:25.584Z,8.88
2024-03-12T17:59:55.138Z,8.90
2024-03-12T18:02:25.311Z,8.89
2024-03-12T18:04:53.082Z,8.89
2024-03-12T18:07:26.770Z,8.84
2024-03-12T18:09:58.596Z,8.82
2024-03-12T18:12:26.083Z,8.83
2024-03-12T18:14:55.039Z,8.76
2024-03-12T18:17:24.673Z,8.83
2024-03-12T18:19:51.859Z,8.78
2024-03-12T18:22:20.471Z,8.76
2024-03-12T18:24:47.972Z,8.69
2024-03-12T18:27:17.996Z,8.67
2024-03-12T18:30:08.566Z,8.59
2024-03-12T18:32:36.104Z,8.55
2024-03-12T18:35:03.341Z,8.54
2024-03-12T18:37:31.826Z,8.55
2024-03-12T18:40:03.254Z,8.51
2024-03-12T18:42:32.514Z,8.49
2024-03-12T18:45:00.788Z,8.44
2024-03-12T18:47:29.489Z,8.36
2024-03-12T18:49:57.197Z,8.35
2024-03-12T18:52:24.936Z,8.25
2024-03-12T18:54:55.227Z,8.17
2024-03-12T18:57:22.974Z,8.13
2024-03-12T18:59:50.534Z,8.13
2024-03-12T19:02:28.021Z,8.14
2024-03-12T19:05:05.524Z,8.10
2024-03-12T19:07:33.408Z,8.05
2024-03-12T19:10:02.183Z,7.99
2024-03-12T19:12:30.722Z,8.01
2024-03-12T19:14:58.902Z,8.00
2024-03-12T19:17:29.903Z,7.95
2024-03-12T19:19:57.925Z,7.98
2024-03-12T19:22:33.043Z,7.99
2024-03-12T19:25:14.415Z,7.93
2024-03-12T19:27:50.511Z,7.98
2024-03-12T19:30:22.931Z,8.03
2024-03-12T19:32:51.634Z,8.03
2024-03-12T19:35:20.572Z,8.04
2024-03-12T19:37:50.439Z,8.05
2024-03-12T19:40:18.948Z,8.12
2024-03-12T19:42:49.270Z,8.08
2024-03-12T19:45:20.112Z,8.08
2024-03-12T19:47:49.187Z,8.07
2024-03-12T19:50:23.238Z,8.04
2024-03-12T19:53:23.190Z,8.09
2024-03-12T19:58:43.900Z,8.07
2024-03-12T20:01:17.159Z,8.00
2024-03-12T20:03:49.770Z,7.97
2024-03-12T20:06:23.885Z,8.01
2024-03-12T20:09:01.933Z,8.04
2024-03-12T20:11:32.720Z,7.99
2024-03-12T20:14:05.980Z,8.02
2024-03-12T20:16:39.134Z,7.97
2024-03-12T20:19:33.088Z,7.97
2024-03-12T20:22:00.867Z,7.92
2024-03-12T20:24:34.547Z,7.94
2024-03-12T20:27:02.920Z,7.97
2024-03-12T20:29:39.998Z,7.89
2024-03-12T20:32:09.005Z,7.93
2024-03-12T20:34:42.406Z,7.94
2024-03-12T20:37:13.344Z,7.99
2024-03-12T20:39:41.290Z,7.93
2024-03-12T20:42:11.642Z,7.88
2024-03-12T20:44:43.133Z,7.83
2024-03-12T20:47:14.562Z,7.89
2024-03-12T20:49:50.980Z,7.89
2024-03-12T20:52:22.038Z,7.92
2024-03-12T20:54:54.771Z,7.90
2024-03-12T20:57:22.088Z,7.84
2024-03-12T20:59:49.351Z,7.89
2024-03-12T21:02:16.668Z,7.79
2024-03-12T21:04:44.095Z,7.83
2024-03-12T21:07:12.050Z,7.76
2024-03-12T21:09:39.990Z,7.76
2024-03-12T21:12:07.549Z,7.69
2024-03-12T21:14:36.213Z,7.66
2024-03-12T21:17:12.676Z,7.64
2024-03-12T21:24:58.484Z,7.69
2024-03-12T21:27:07.282Z,7.68
2024-03-12T21:29:35.076Z,7.68
2024-03-12T21:32:03.029Z,7.63
2024-03-12T21:34:30.340Z,7.65
2024-03-12T21:36:58.333Z,7.66
2024-03-12T21:39:27.238Z,7.68
2024-03-12T21:41:54.768Z,7.70
2024-03-12T21:44:22.088Z,7.66
2024-03-12T21:46:51.598Z,7.62
2024-03-12T21:49:19.010Z,7.61
2024-03-12T21:51:46.507Z,7.51
2024-03-12T21:54:14.648Z,7.58
2024-03-12T21:56:42.531Z,7.56
2024-03-12T21:59:09.868Z,7.62
2024-03-12T22:01:37.342Z,7.62
2024-03-12T22:04:05.010Z,7.61
2024-03-12T22:06:41.839Z,7.64
2024-03-12T22:09:12.830Z,7.65
2024-03-12T22:11:44.296Z,7.75
2024-03-12T22:14:14.737Z,7.65
2024-03-12T22:16:48.536Z,7.67
2024-03-12T22:19:18.692Z,7.67
2024-03-12T22:21:50.697Z,7.66
2024-03-12T22:24:24.091Z,7.67
2024-03-12T22:26:54.535Z,7.71
2024-03-12T22:29:41.752Z,7.72
2024-03-12T22:32:17.870Z,7.68
2024-03-12T22:34:46.006Z,7.65
2024-03-12T22:37:13.089Z,7.71
2024-03-12T22:39:43.962Z,7.71
2024-03-12T22:42:11.918Z,7.70
2024-03-12T22:44:39.975Z,7.70
2024-03-12T22:47:09.139Z,7.72
2024-03-12T22:49:44.230Z,7.78
2024-03-12T22:52:12.607Z,7.81
2024-03-12T22:54:43.110Z,7.78
2024-03-12T22:57:10.636Z,7.80
2024-03-12T22:59:38.268Z,7.77
2024-03-12T23:02:10.592Z,7.82
2024-03-12T23:04:38.125Z,7.82
2024-03-12T23:07:05.511Z,7.83
2024-03-12T23:09:33.533Z,7.82
2024-03-12T23:12:02.074Z,7.76
2024-03-12T23:14:30.676Z,7.80
2024-03-12T23:17:01.008Z,7.82
2024-03-12T23:19:34.162Z,7.91
2024-03-12T23:22:01.248Z,7.87
2024-03-12T23:24:29.458Z,7.91
2024-03-12T23:26:58.678Z,7.93
2024-03-12T23:29:25.842Z,7.88
2024-03-12T23:31:53.879Z,7.91
2024-03-12T23:34:22.286Z,7.92
2024-03-12T23:36:49.543Z,7.95
2024-03-12T23:39:18.461Z,7.97
2024-03-12T23:41:45.447Z,7.91
2024-03-12T23:44:14.430Z,7.90
2024-03-12T23:46:43.134Z,7.90
2024-03-12T23:49:10.284Z,7.84
2024-03-12T23:51:37.388Z,7.79
2024-03-12T23:54:07.122Z,7.88
2024-03-12T23:56:34.060Z,7.90
2024-03-12T23:59:01.080Z,7.87
